createdAt,value
2018-03-27T00:04:18.981Z,5.90
2018-03-27T00:24:55.512Z,3.37
2018-03-27T01:03:34.267Z,7.50
2018-03-27T01:24:09.542Z,7.53
2018-03-27T01:44:47.269Z,6.67
2018-03-27T02:05:22.185Z,4.03
2018-03-27T02:26:00.883Z,8.83
2018-03-27T02:46:38.305Z,6.57
2018-03-27T03:07:13.932Z,7.93
2018-03-27T03:27:50.995Z,4.30
2018-03-27T03:48:25.040Z,4.73
2018-03-27T04:09:00.309Z,6.57
2018-03-27T04:29:35.583Z,6.63
2018-03-27T04:50:12.082Z,6.40
2018-03-27T05:10:50.742Z,4.20
2018-03-27T05:31:29.382Z,5.00
2018-03-27T05:52:03.735Z,7.20
2018-03-27T06:12:42.303Z,6.07
2018-03-27T06:33:17.356Z,4.50
2018-03-27T06:53:52.309Z,5.00
2018-03-27T07:14:26.662Z,9.63
2018-03-27T07:34:59.001Z,5.83
2018-03-27T07:55:33.828Z,6.60
2018-03-27T08:16:08.176Z,11.20
2018-03-27T08:36:40.375Z,9.20
2018-03-27T08:57:16.565Z,19.70
2018-03-27T09:17:51.844Z,16.07
2018-03-27T09:38:28.364Z,35.73
2018-03-27T09:59:05.613Z,28.20
2018-03-27T10:19:38.827Z,28.30
2018-03-27T10:40:12.928Z,35.50
2018-03-27T11:00:48.820Z,43.40
2018-03-27T11:21:22.857Z,38.73
2018-03-27T11:41:55.703Z,41.30
2018-03-27T12:02:30.635Z,44.40
2018-03-27T12:23:08.181Z,41.57
2018-03-27T12:43:51.315Z,44.40
2018-03-27T13:22:28.544Z,28.13
2018-03-27T13:43:04.451Z,38.20
2018-03-27T14:03:38.492Z,29.80
2018-03-27T14:24:15.263Z,33.80
2018-03-27T14:44:49.956Z,27.70
2018-03-27T15:05:22.465Z,32.77
2018-03-27T15:25:59.583Z,28.83
2018-03-27T15:46:37.064Z,32.90
2018-03-27T16:07:13.311Z,33.07
2018-03-27T16:27:47.237Z,34.13
2018-03-27T16:48:23.766Z,34.67
2018-03-27T17:09:00.005Z,36.73
2018-03-27T17:29:34.898Z,31.57
2018-03-27T17:50:09.245Z,27.87
2018-03-27T18:10:42.368Z,27.53
2018-03-27T18:31:18.901Z,22.77
2018-03-27T18:51:53.836Z,20.63
2018-03-27T19:12:31.382Z,15.20
2018-03-27T19:33:08.372Z,13.40
2018-03-27T19:53:44.574Z,9.50
2018-03-27T20:14:17.697Z,14.37
2018-03-27T20:34:55.110Z,14.07
2018-03-27T20:55:29.467Z,7.77
2018-03-27T21:16:03.503Z,10.67
2018-03-27T21:36:35.716Z,11.13
2018-03-27T21:57:11.900Z,12.10
2018-03-27T22:17:44.100Z,12.60
2018-03-27T22:38:15.379Z,9.50
2018-03-27T22:58:55.895Z,7.27
2018-03-27T23:19:30.838Z,8.40
2018-03-27T23:40:04.884Z,8.67
